Terminal Aerodrome Forecast
Issued by NWS

Home | Current Version | Previous Version | Text Only | Print | Product List | Glossary On
Versions: 1 2 3 4 5 6 7 8 9 10 11 12 13 14 15 16 17 18 19 20 21 22 23 24 25
000
FTUS43 KAPX 211740
TAFMBL
TAF
KMBL 211740Z 2118/2218 VRB04KT P6SM OVC040
     FM220100 17006KT P6SM SCT050 OVC070
     FM220500 17007KT P6SM SCT050 OVC150
     FM221500 14012G18KT P6SM SCT050 OVC150
      AMD LTD TO CLD VIS AND WIND=

USA.gov is the U.S. government's official web portal to all federal, state and local government web resources and services.